• Join FlightAware (Why Join?)
  • Login
  • US Flag 
07:50PM EDT


 

Airport Tracker/Info


-or-


 

Live Flight TrackerFlight Track Log ✈ N990LC ✈ 26-Jul-2013 ✈ KFXE - KLFT

Flight Track Log - Related Links

Times and Time Zones

All times are in EDT time to prevent confusion due to time zone crossing. See the N990LC flight status page for this flight to view local times or setup timezone preferences in your user account.

Time Position Orientation Groundspeed Altitude Reporting Facility
EDT Latitude Longitude Course Direction KTS MPH feet Rate Location/Type
09:54PM 26.1928 -80.1886 302° West 163 188 300  Level Miami Center
09:55PM 26.2469 -80.2850 302° West 264 304 5,100 2,880 Climbing Miami Center
09:56PM 26.2700 -80.3736 286° West 264 304 8,200 3,420 Climbing Miami Center
09:57PM 26.2489 -80.4633 255° West 289 333 12,000 3,480 Climbing Miami Center
09:58PM 26.2503 -80.5792 271° West 328 377 15,200 2,700 Climbing Miami Center
09:59PM 26.2519 -80.6742 271° West 338 389 17,500 2,580 Climbing Miami Center
10:00PM 26.2572 -80.7903 273° West 349 402 20,400 2,280 Climbing Miami Center
10:01PM 26.3072 -80.8683 306° West 336 387 22,100 1,800 Climbing Miami Center
10:02PM 26.3906 -80.9522 318° Northwest 347 399 24,100 2,100 Climbing Miami Center
10:03PM 26.4514 -81.0147 317° Northwest 369 425 25,900 1,860 Climbing Miami Center
10:04PM 26.5142 -81.0867 314° West 367 422 27,400 1,200 Climbing Miami Center
10:05PM 26.5628 -81.2067 294° West 376 433 28,300 840 Climbing Miami Center
10:06PM 26.6117 -81.3200 296° West 400 460 29,200 1,200 Climbing Miami Center
10:07PM 26.6603 -81.4356 295° West 406 467 30,800 1,440 Climbing Miami Center
10:08PM 26.7008 -81.5372 294° West 400 460 32,100 1,080 Climbing Miami Center
10:09PM 26.7531 -81.6603 295° West 406 467 33,100 960 Climbing Miami Center
10:10PM 26.8014 -81.7786 295° West 406 467 34,100 1,020 Climbing Miami Center
10:11PM 26.8475 -81.8922 294° West 406 467 35,200 1,200 Climbing Miami Center
10:12PM 26.8939 -82.0036 295° West 401 461 36,600 1,080 Climbing Miami Center
10:13PM 26.9419 -82.1197 295° West 401 461 37,500 660 Climbing Miami Center
10:14PM 26.9878 -82.2358 294° West 407 468 38,000 240 Climbing Miami Center
10:15PM 27.0372 -82.3572 295° West 412 474 38,000  Level Miami Center
10:16PM 27.0911 -82.4808 296° West 425 489 38,000  Level Miami Center
10:17PM 27.1367 -82.5975 294° West 425 489 38,000  Level Miami Center
10:18PM 27.1858 -82.7236 294° West 430 495 38,000  Level Miami Center
10:19PM 27.2350 -82.8428 295° West 430 495 38,000  Level Miami Center
10:20PM 27.2822 -82.9642 294° West 430 495 38,000  Level Miami Center
10:21PM 27.3292 -83.0836 294° West 425 489 38,000  Level Miami Center
10:22PM 27.3761 -83.2053 294° West 425 489 38,000  Level Miami Center
10:23PM 27.4250 -83.3247 295° West 425 489 38,000  Level Miami Center
10:24PM 27.4622 -83.4228 293° West 425 489 38,000  Level Miami Center
10:25PM 27.5128 -83.5497 294° West 425 489 38,000  Level Miami Center
10:26PM 27.5614 -83.6694 295° West 425 489 38,000  Level Miami Center
10:27PM 27.6100 -83.7894 295° West 425 489 38,000  Level Miami Center
10:30PM 27.7375 -84.1000 295° West 432 497 38,000  Level Jacksonville Center
10:31PM 27.7758 -84.2200 290° West 422 486 38,000  Level Jacksonville Center
10:32PM 27.8267 -84.3428 295° West 422 486 38,000  Level Jacksonville Center
10:33PM 27.8692 -84.4653 291° West 422 486 38,000  Level Jacksonville Center
10:34PM 27.9011 -84.5761 288° West 411 473 38,000  Level Jacksonville Center
10:35PM 27.9453 -84.6992 292° West 421 484 38,000  Level Jacksonville Center
10:36PM 27.9914 -84.8244 293° West 430 495 38,000  Level Jacksonville Center
10:37PM 28.0333 -84.9522 290° West 431 496 38,000  Level Jacksonville Center
10:38PM 28.0772 -85.0731 292° West 431 496 38,000  Level Jacksonville Center
10:39PM 28.1189 -85.1964 291° West 425 489 38,000  Level Jacksonville Center
10:40PM 28.1603 -85.3219 291° West 432 497 38,000  Level Jacksonville Center
10:41PM 28.2017 -85.4503 290° West 427 491 38,000  Level Jacksonville Center
10:42PM 28.2450 -85.5761 291° West 432 497 38,000  Level Jacksonville Center
10:43PM 28.2842 -85.6975 290° West 432 497 38,000  Level Jacksonville Center
10:44PM 28.3272 -85.8236 291° West 432 497 38,000  Level Jacksonville Center
10:45PM 28.3683 -85.9475 291° West 432 497 38,000  Level Jacksonville Center
10:46PM 28.4131 -86.0786 291° West 432 497 38,000  Level Jacksonville Center
10:47PM 28.4536 -86.2050 290° West 432 497 38,000  Level Jacksonville Center
10:48PM 28.4964 -86.3292 291° West 432 497 38,000  Level Jacksonville Center
10:49PM 28.5367 -86.4533 290° West 434 499 38,000  Level Jacksonville Center
10:50PM 28.5811 -86.5850 291° West 439 505 38,000  Level Jacksonville Center
10:51PM 28.6231 -86.7142 290° West 433 498 38,000  Level Jacksonville Center
10:52PM 28.6650 -86.8436 290° West 433 498 38,000  Level Jacksonville Center
10:52PM 28.6872 -86.9144 290° West 430 495 38,000  Level Houston Center
10:53PM 28.7278 -87.0408 290° West 427 491 38,000  Level Houston Center
10:54PM 28.7681 -87.1653 290° West 422 486 38,000  Level Houston Center
10:55PM 28.8083 -87.2922 290° West 425 489 38,000  Level Houston Center
10:56PM 28.8492 -87.4167 291° West 423 487 38,000  Level Houston Center
10:57PM 28.8878 -87.5425 289° West 423 487 38,000  Level Houston Center
10:58PM 28.9272 -87.6669 290° West 420 483 38,000  Level Houston Center
10:59PM 28.9661 -87.7903 290° West 416 479 38,000  Level Houston Center
11:00PM 29.0044 -87.9139 290° West 415 478 38,000  Level Houston Center
11:01PM 29.0442 -88.0386 290° West 417 480 38,000  Level Houston Center
11:02PM 29.0897 -88.1847 290° West 416 479 38,000  Level Houston Center
11:03PM 29.1281 -88.3083 290° West 414 476 38,000  Level Houston Center
11:04PM 29.1650 -88.4306 289° West 407 468 38,000  Level Houston Center
11:05PM 29.2025 -88.5542 289° West 410 472 38,000  Level Houston Center
11:06PM 29.2411 -88.6789 290° West 415 478 38,000  Level Houston Center
11:07PM 29.2794 -88.8025 290° West 414 476 38,000  Level Houston Center
11:08PM 29.3169 -88.9275 289° West 415 478 38,000  Level Houston Center
11:09PM 29.3547 -89.0522 289° West 415 478 38,000  Level Houston Center
11:11PM 29.3917 -89.1783 289° West 416 479 38,000  Level Houston Center
11:12PM 29.4297 -89.3006 290° West 412 474 38,000  Level Houston Center
11:13PM 29.4667 -89.4261 289° West 414 476 38,000 -720 Level Houston Center
11:14PM 29.5033 -89.5475 289° West 407 468 36,600 -2,160 Descending Houston Center
11:15PM 29.5483 -89.6978 289° West 412 474 33,700 -2,580 Descending Houston Center
11:16PM 29.5858 -89.8283 288° West 422 486 31,400 -2,220 Descending Houston Center
11:17PM 29.6253 -89.9553 290° West 424 488 29,200 -2,220 Descending Houston Center
11:18PM 29.6614 -90.0822 288° West 420 483 26,900 -2,280 Descending Houston Center
11:19PM 29.6983 -90.2069 289° West 414 476 24,600 -2,100 Descending Houston Center
11:20PM 29.7342 -90.3300 289° West 405 466 22,700 -1,860 Descending Houston Center
11:21PM 29.7683 -90.4483 288° West 391 450 20,900 -1,740 Descending Houston Center
11:22PM 29.8011 -90.5625 288° West 378 435 19,200 -1,680 Descending Houston Center
11:23PM 29.8322 -90.6719 288° West 361 415 17,500 -1,500 Descending Houston Center
11:24PM 29.8622 -90.7778 288° West 350 403 16,200 -1,260 Descending Houston Center
11:25PM 29.8939 -90.8842 289° West 352 405 15,000 -1,140 Descending Houston Center
11:26PM 29.9222 -90.9853 288° West 331 381 14,000 -1,140 Descending Houston Center
11:27PM 29.9492 -91.0811 288° West 316 364 12,800 -1,260 Descending Houston Center
11:28PM 29.9764 -91.1764 288° West 314 361 11,500 -1,140 Descending Houston Center
11:29PM 30.0028 -91.2686 288° West 304 350 10,600 -1,440 Descending Houston Center
11:30PM 30.0681 -91.3381 317° Northwest 263 303 8,600 -2,160 Descending Houston Center
11:31PM 30.1286 -91.3967 320° Northwest 279 321 6,300 -1,260 Descending Houston Center
11:32PM 30.1839 -91.4531 319° Northwest 264 304 6,100 -600 Descending Houston Center
11:33PM 30.2381 -91.5111 317° Northwest 264 304 5,200 -720 Descending Houston Center
11:34PM 30.2903 -91.5667 317° Northwest 256 295 4,700 -720 Descending Houston Center
11:35PM 30.3444 -91.6211 319° Northwest 256 295 3,800 -360 Descending Houston Center
11:36PM 30.3703 -91.6856 295° West 229 264 4,000 60 Climbing Houston Center
11:37PM 30.3647 -91.7489 264° West 209 241 4,000  Level Houston Center